Time;durP1;ratioP1;P1;durP2;ratioP2;P2;SDS_P1;SDS_P2;PMS_P1;PMS_P2;Temp;Humidity;BMP_temperature;BMP_pressure;BME280_temperature;BME280_humidity;BME280_pressure;Samples;Min_cycle;Max_cycle;Signal;HPM_P1;HPM_P2
2023/12/18 00:02:06;;;;;;;11.00;3.33;;;8.00;99.90;;;;;;5092342;27;20031;-71
2023/12/18 00:04:32;;;;;;;5.85;2.88;;;8.00;99.90;;;;;;5087310;28;20031;-71
2023/12/18 00:06:58;;;;;;;5.45;2.70;;;8.10;99.90;;;;;;5118635;27;20035;-71
2023/12/18 00:09:23;;;;;;;6.75;2.80;;;8.10;99.90;;;;;;5099588;27;20117;-71
2023/12/18 00:11:49;;;;;;;5.90;2.88;;;8.10;99.90;;;;;;5120792;27;20391;-72
2023/12/18 00:14:15;;;;;;;4.95;2.30;;;8.10;99.90;;;;;;5153004;27;20483;-72
2023/12/18 00:16:40;;;;;;;4.88;2.65;;;8.10;99.90;;;;;;5115621;27;20036;-71
2023/12/18 00:19:06;;;;;;;5.88;2.75;;;8.10;99.90;;;;;;5152144;27;20039;-71
2023/12/18 00:21:32;;;;;;;7.47;2.85;;;8.10;99.90;;;;;;5126302;27;21489;-71
2023/12/18 00:23:58;;;;;;;5.03;2.55;;;8.00;99.90;;;;;;5149268;27;20039;-72
2023/12/18 00:26:23;;;;;;;12.10;2.90;;;8.10;99.90;;;;;;5152584;27;20069;-71
2023/12/18 00:28:49;;;;;;;6.60;2.80;;;8.10;99.90;;;;;;5120185;27;20030;-71
2023/12/18 00:31:15;;;;;;;5.85;3.22;;;8.10;99.90;;;;;;5139494;27;20062;-71
2023/12/18 00:33:41;;;;;;;7.50;3.22;;;8.00;99.90;;;;;;5103618;27;20712;-72
2023/12/18 00:36:07;;;;;;;7.63;2.60;;;8.00;99.90;;;;;;5111891;27;20511;-72
2023/12/18 00:38:33;;;;;;;5.65;2.78;;;8.10;99.90;;;;;;5115284;27;20096;-72
2023/12/18 00:40:59;;;;;;;5.10;2.72;;;8.10;99.90;;;;;;5118428;27;20051;-71
2023/12/18 00:43:24;;;;;;;7.72;3.30;;;8.10;99.90;;;;;;5112513;27;20067;-72
2023/12/18 00:45:50;;;;;;;6.45;2.78;;;8.10;99.90;;;;;;5139369;27;20027;-71
2023/12/18 00:48:15;;;;;;;4.90;3.00;;;8.10;99.90;;;;;;5120148;27;20046;-71
2023/12/18 00:50:41;;;;;;;6.43;3.33;;;8.10;99.90;;;;;;5151976;27;20453;-71
2023/12/18 00:53:07;;;;;;;7.03;2.72;;;8.10;99.90;;;;;;5131605;27;20038;-71
2023/12/18 00:55:32;;;;;;;10.13;3.03;;;8.10;99.90;;;;;;5101455;27;20051;-71
2023/12/18 00:57:58;;;;;;;7.40;2.50;;;8.10;99.90;;;;;;5116470;27;20585;-71
2023/12/18 01:00:24;;;;;;;10.52;3.33;;;8.10;99.90;;;;;;5133097;27;20119;-71
2023/12/18 01:02:50;;;;;;;6.88;2.78;;;8.10;99.90;;;;;;5100182;27;20036;-71
2023/12/18 01:05:15;;;;;;;3.92;2.80;;;8.10;99.90;;;;;;5117974;27;21055;-71
2023/12/18 01:07:42;;;;;;;8.85;3.65;;;8.10;99.90;;;;;;5119908;27;20050;-71
2023/12/18 01:10:08;;;;;;;8.07;3.08;;;8.10;99.90;;;;;;5114299;27;20035;-71
2023/12/18 01:12:34;;;;;;;4.93;2.60;;;8.10;99.90;;;;;;5124359;27;20030;-71
2023/12/18 01:15:00;;;;;;;5.68;2.80;;;8.10;99.90;;;;;;5118598;27;20039;-71
2023/12/18 01:17:25;;;;;;;7.63;3.05;;;8.10;99.90;;;;;;5154342;27;20082;-71
2023/12/18 01:19:51;;;;;;;13.63;3.28;;;8.10;99.90;;;;;;5118414;27;20031;-71
2023/12/18 01:22:16;;;;;;;10.50;2.67;;;8.10;99.90;;;;;;5135916;27;20035;-71
2023/12/18 01:24:42;;;;;;;7.05;2.97;;;8.10;99.90;;;;;;5123054;27;20024;-72
2023/12/18 01:27:08;;;;;;;4.97;2.40;;;8.10;99.90;;;;;;5117546;27;20042;-71
2023/12/18 01:29:33;;;;;;;6.95;2.97;;;8.10;99.90;;;;;;5114248;27;20043;-71
2023/12/18 01:31:59;;;;;;;7.55;2.63;;;8.20;99.90;;;;;;5103343;27;20038;-72
2023/12/18 01:34:24;;;;;;;5.10;2.28;;;8.20;99.90;;;;;;5119695;27;20039;-71
2023/12/18 01:36:50;;;;;;;5.25;2.58;;;8.20;99.90;;;;;;5138595;27;20038;-71
2023/12/18 01:39:16;;;;;;;7.03;2.85;;;8.20;99.90;;;;;;5154057;27;20045;-71
2023/12/18 01:41:41;;;;;;;5.00;2.53;;;8.20;99.90;;;;;;5148069;27;20322;-71
2023/12/18 01:44:07;;;;;;;3.63;2.05;;;8.20;99.90;;;;;;5094087;27;20054;-71
2023/12/18 01:46:36;;;;;;;10.57;2.97;;;8.10;99.90;;;;;;5104689;27;20037;-71
2023/12/18 01:49:02;;;;;;;6.60;2.17;;;8.20;99.90;;;;;;5100168;27;20092;-71
2023/12/18 01:51:29;;;;;;;4.03;2.63;;;8.20;99.90;;;;;;5117814;27;20040;-71
2023/12/18 01:53:57;;;;;;;6.25;3.35;;;8.30;99.90;;;;;;5111716;27;20037;-71
2023/12/18 01:56:26;;;;;;;4.70;2.20;;;8.30;99.90;;;;;;5118420;27;20103;-71
2023/12/18 01:58:54;;;;;;;5.10;2.17;;;8.30;99.90;;;;;;5140414;27;20035;-72
2023/12/18 02:01:19;;;;;;;9.50;2.22;;;8.30;99.90;;;;;;5110156;27;20471;-72
2023/12/18 02:03:46;;;;;;;7.63;2.78;;;8.30;99.90;;;;;;5116266;27;20079;-71
2023/12/18 02:06:13;;;;;;;6.10;2.40;;;8.30;99.90;;;;;;5114966;27;20668;-71
2023/12/18 02:08:39;;;;;;;4.85;2.35;;;8.30;99.90;;;;;;5108925;27;20038;-71
2023/12/18 02:11:05;;;;;;;6.22;2.63;;;8.30;99.90;;;;;;5112008;27;20427;-71
2023/12/18 02:13:30;;;;;;;5.95;2.60;;;8.30;99.90;;;;;;5099594;27;20045;-72
2023/12/18 02:15:58;;;;;;;8.38;2.33;;;8.30;99.90;;;;;;5123675;27;20065;-71
2023/12/18 02:18:23;;;;;;;8.32;2.13;;;8.30;99.90;;;;;;5100318;27;20041;-72
2023/12/18 02:20:49;;;;;;;5.20;2.20;;;8.30;99.90;;;;;;5095876;27;20027;-71
2023/12/18 02:23:15;;;;;;;4.07;2.20;;;8.30;99.90;;;;;;5116366;27;20039;-71
2023/12/18 02:25:40;;;;;;;4.47;2.17;;;8.30;99.90;;;;;;5149327;27;20031;-71
2023/12/18 02:28:11;;;;;;;4.28;1.83;;;8.30;99.90;;;;;;5108254;27;20043;-71
2023/12/18 02:30:36;;;;;;;5.22;3.05;;;8.30;99.90;;;;;;5154893;27;20387;-71
2023/12/18 02:33:02;;;;;;;6.90;2.78;;;8.30;99.90;;;;;;5149912;27;20033;-72
2023/12/18 02:35:28;;;;;;;5.70;2.22;;;8.40;99.90;;;;;;5094470;28;20251;-71
2023/12/18 02:37:53;;;;;;;5.97;2.47;;;8.40;99.90;;;;;;5116406;27;20034;-71
2023/12/18 02:40:19;;;;;;;3.78;1.73;;;8.40;99.90;;;;;;5116734;27;20027;-73
2023/12/18 02:42:45;;;;;;;5.55;3.45;;;8.40;99.90;;;;;;5138144;27;20031;-71
2023/12/18 02:45:10;;;;;;;6.25;3.03;;;8.40;99.90;;;;;;5123297;27;20034;-72
2023/12/18 02:47:37;;;;;;;4.75;2.33;;;8.40;99.90;;;;;;5102501;27;20091;-71
2023/12/18 02:50:03;;;;;;;8.55;3.40;;;8.30;99.90;;;;;;5138040;27;20027;-73
2023/12/18 02:52:28;;;;;;;5.85;2.30;;;8.40;99.90;;;;;;5151045;27;20039;-72
2023/12/18 02:54:54;;;;;;;5.90;2.63;;;8.40;99.90;;;;;;5115416;27;20067;-73
2023/12/18 02:57:20;;;;;;;4.55;2.42;;;8.40;99.90;;;;;;5144426;27;20083;-71
2023/12/18 02:59:45;;;;;;;4.70;2.42;;;8.40;99.90;;;;;;5129601;27;20174;-71
2023/12/18 03:02:11;;;;;;;7.43;3.35;;;8.40;99.90;;;;;;5147148;27;20074;-72
2023/12/18 03:04:43;;;;;;;7.68;2.35;;;8.40;99.90;;;;;;5100184;27;20110;-71
2023/12/18 03:07:09;;;;;;;5.15;2.28;;;8.40;99.90;;;;;;5091633;27;20043;-71
2023/12/18 03:09:35;;;;;;;4.90;2.33;;;8.40;99.90;;;;;;5130986;27;20443;-71
2023/12/18 03:12:01;;;;;;;6.25;2.67;;;8.30;99.90;;;;;;5119825;27;20094;-72
2023/12/18 03:14:27;;;;;;;7.05;2.75;;;8.40;99.90;;;;;;5107006;27;20503;-71
2023/12/18 03:16:53;;;;;;;4.80;2.50;;;8.40;99.90;;;;;;5157233;27;20043;-72
2023/12/18 03:19:19;;;;;;;7.63;2.10;;;8.40;99.90;;;;;;5111513;27;20396;-71
2023/12/18 03:21:48;;;;;;;8.23;3.20;;;8.50;99.90;;;;;;5133182;27;20023;-71
2023/12/18 03:24:14;;;;;;;11.18;2.78;;;8.40;99.90;;;;;;5096654;27;20087;-72
2023/12/18 03:26:40;;;;;;;5.80;2.35;;;8.40;99.90;;;;;;5129259;27;20035;-72
2023/12/18 03:29:06;;;;;;;3.97;2.45;;;8.40;99.90;;;;;;5115220;27;20538;-71
2023/12/18 03:31:31;;;;;;;5.63;2.67;;;8.40;99.90;;;;;;5102167;27;20589;-72
2023/12/18 03:33:57;;;;;;;6.20;2.45;;;8.40;99.90;;;;;;5113377;27;20038;-71
2023/12/18 03:36:23;;;;;;;4.60;2.40;;;8.40;99.90;;;;;;5119125;27;20370;-71
2023/12/18 03:38:48;;;;;;;5.75;3.03;;;8.40;99.90;;;;;;5116456;27;20502;-71
2023/12/18 03:41:14;;;;;;;5.95;2.63;;;8.40;99.90;;;;;;5100535;27;20043;-72
2023/12/18 03:43:40;;;;;;;5.55;2.40;;;8.40;99.90;;;;;;5125660;27;20030;-71
2023/12/18 03:46:06;;;;;;;4.80;3.05;;;8.40;99.90;;;;;;5152878;27;20039;-71
2023/12/18 03:48:32;;;;;;;7.07;3.08;;;8.40;99.90;;;;;;5135283;27;20054;-71
2023/12/18 03:50:57;;;;;;;2.70;1.77;;;8.40;99.90;;;;;;5114661;27;20497;-71
2023/12/18 03:53:23;;;;;;;6.97;2.75;;;8.40;99.90;;;;;;5107686;27;20121;-71
2023/12/18 03:55:49;;;;;;;5.53;2.25;;;8.40;99.90;;;;;;5131481;27;20118;-71
2023/12/18 03:58:14;;;;;;;6.03;3.10;;;8.40;99.90;;;;;;5107085;27;20107;-71
2023/12/18 04:00:41;;;;;;;5.90;2.50;;;8.40;99.90;;;;;;5135869;27;20063;-72
2023/12/18 04:03:07;;;;;;;4.82;3.00;;;8.50;99.90;;;;;;5138837;27;20031;-71
2023/12/18 04:05:33;;;;;;;5.88;3.00;;;8.40;99.90;;;;;;5109025;27;20073;-71
2023/12/18 04:07:59;;;;;;;4.40;2.45;;;8.40;99.90;;;;;;5125076;27;20101;-71
2023/12/18 04:10:24;;;;;;;6.18;2.63;;;8.40;99.90;;;;;;5154138;27;20043;-72
2023/12/18 04:12:51;;;;;;;5.03;1.90;;;8.40;99.90;;;;;;5151825;27;20035;-72
2023/12/18 04:15:17;;;;;;;8.23;3.47;;;8.50;99.90;;;;;;5122163;27;20059;-71
2023/12/18 04:17:43;;;;;;;5.00;2.83;;;8.50;99.90;;;;;;5126265;27;20077;-72
2023/12/18 04:20:09;;;;;;;4.30;2.10;;;8.40;99.90;;;;;;5114511;27;20507;-71
2023/12/18 04:22:35;;;;;;;7.38;3.03;;;8.40;99.90;;;;;;5102129;27;20106;-71
2023/12/18 04:25:01;;;;;;;6.38;2.80;;;8.50;99.90;;;;;;5139130;27;20188;-71
2023/12/18 04:27:26;;;;;;;4.20;2.05;;;8.40;99.90;;;;;;5105334;27;20031;-72
2023/12/18 04:29:52;;;;;;;4.97;2.53;;;8.50;99.90;;;;;;5140406;27;20053;-71
2023/12/18 04:32:17;;;;;;;5.22;1.85;;;8.50;99.90;;;;;;5106638;27;20037;-71
2023/12/18 04:34:43;;;;;;;8.32;2.67;;;8.50;99.90;;;;;;5147335;27;20119;-71
2023/12/18 04:37:09;;;;;;;5.65;2.20;;;8.50;99.90;;;;;;5122822;27;20512;-71
2023/12/18 04:39:35;;;;;;;4.93;2.17;;;8.40;99.90;;;;;;5105073;27;20039;-71
2023/12/18 04:42:01;;;;;;;4.72;2.90;;;8.50;99.90;;;;;;5151067;27;20030;-71
2023/12/18 04:44:28;;;;;;;6.18;1.90;;;8.50;99.90;;;;;;5114888;27;20030;-71
2023/12/18 04:46:54;;;;;;;4.85;1.80;;;8.40;99.90;;;;;;5138895;27;20069;-71
2023/12/18 04:49:19;;;;;;;6.57;2.80;;;8.50;99.90;;;;;;5124537;27;20071;-71
2023/12/18 04:51:45;;;;;;;6.07;2.35;;;8.50;99.90;;;;;;5145404;27;20043;-71
2023/12/18 04:54:11;;;;;;;5.00;2.38;;;8.40;99.90;;;;;;5104349;27;20072;-71
2023/12/18 04:56:37;;;;;;;7.07;2.20;;;8.40;99.90;;;;;;5115713;27;20483;-71
2023/12/18 04:59:02;;;;;;;6.13;2.80;;;8.50;99.90;;;;;;5139679;27;20034;-71
2023/12/18 05:01:28;;;;;;;6.13;2.17;;;8.50;99.90;;;;;;5105880;27;20063;-71
2023/12/18 05:03:54;;;;;;;3.70;1.50;;;8.50;99.90;;;;;;5116745;27;20035;-71
2023/12/18 05:06:25;;;;;;;6.35;2.47;;;8.40;99.90;;;;;;5104988;27;20138;-71
2023/12/18 05:08:51;;;;;;;7.22;2.50;;;8.50;99.90;;;;;;5127920;27;20050;-71
2023/12/18 05:11:18;;;;;;;4.05;2.17;;;8.50;99.90;;;;;;5097233;27;20039;-71
2023/12/18 05:13:44;;;;;;;5.40;2.45;;;8.50;99.90;;;;;;5112257;27;20088;-71
2023/12/18 05:16:10;;;;;;;5.38;2.45;;;8.50;99.90;;;;;;5112705;27;20042;-71
2023/12/18 05:18:36;;;;;;;8.27;2.40;;;8.50;99.90;;;;;;5113189;27;20095;-71
2023/12/18 05:21:03;;;;;;;4.22;1.95;;;8.50;99.90;;;;;;5148083;27;20051;-72
2023/12/18 05:23:29;;;;;;;4.63;2.33;;;8.50;99.90;;;;;;5121352;27;20140;-71
2023/12/18 05:25:55;;;;;;;3.58;1.98;;;8.60;99.90;;;;;;5154902;27;20497;-71
2023/12/18 05:28:20;;;;;;;5.40;1.90;;;8.50;99.90;;;;;;5119195;27;20157;-72
2023/12/18 05:30:46;;;;;;;6.57;2.42;;;8.60;99.90;;;;;;5122827;27;20035;-72
2023/12/18 05:33:12;;;;;;;2.63;1.80;;;8.60;99.90;;;;;;5149426;27;20130;-72
2023/12/18 05:35:37;;;;;;;4.90;2.30;;;8.60;99.90;;;;;;5121957;27;20714;-71
2023/12/18 05:38:03;;;;;;;5.05;2.10;;;8.50;99.90;;;;;;5133887;27;20090;-72
2023/12/18 05:40:29;;;;;;;5.75;2.75;;;8.60;99.90;;;;;;5108774;27;20083;-71
2023/12/18 05:42:54;;;;;;;6.13;2.38;;;8.60;99.90;;;;;;5104779;27;20039;-72
2023/12/18 05:45:20;;;;;;;4.07;1.95;;;8.50;99.90;;;;;;5118054;27;20495;-71
2023/12/18 05:47:46;;;;;;;4.30;2.28;;;8.60;99.90;;;;;;5106221;27;20058;-71
2023/12/18 05:50:12;;;;;;;3.05;1.73;;;8.50;99.90;;;;;;5136839;27;20043;-71
2023/12/18 05:52:37;;;;;;;3.72;1.92;;;8.50;99.90;;;;;;5150260;27;20119;-71
2023/12/18 05:55:04;;;;;;;5.35;2.45;;;8.50;99.90;;;;;;5137880;27;20059;-72
2023/12/18 05:57:29;;;;;;;4.38;2.17;;;8.60;99.90;;;;;;5119016;27;20035;-72
2023/12/18 05:59:55;;;;;;;7.40;2.30;;;8.50;99.90;;;;;;5115122;27;20042;-72
2023/12/18 06:02:21;;;;;;;8.57;2.10;;;8.50;99.90;;;;;;5145607;27;20092;-72
2023/12/18 06:04:46;;;;;;;6.55;1.95;;;8.50;99.90;;;;;;5122077;27;20433;-71
2023/12/18 06:07:12;;;;;;;5.10;2.40;;;8.50;99.90;;;;;;5129165;27;20039;-72
2023/12/18 06:09:39;;;;;;;3.55;1.80;;;8.60;99.90;;;;;;5109804;27;20361;-71
2023/12/18 06:12:06;;;;;;;5.40;2.53;;;8.60;99.90;;;;;;5127789;27;20038;-73
2023/12/18 06:14:31;;;;;;;4.60;1.88;;;8.60;99.90;;;;;;5146063;27;20041;-72
2023/12/18 06:16:57;;;;;;;3.75;1.65;;;8.70;99.90;;;;;;5098877;27;20030;-72
2023/12/18 06:19:22;;;;;;;5.45;3.05;;;8.60;99.90;;;;;;5111680;27;20048;-72
2023/12/18 06:21:48;;;;;;;6.22;2.53;;;8.60;99.90;;;;;;5096627;27;20030;-71
2023/12/18 06:24:14;;;;;;;5.18;1.85;;;8.60;99.90;;;;;;5115224;27;20062;-71
2023/12/18 06:26:39;;;;;;;6.55;2.00;;;8.60;99.90;;;;;;5143425;27;20043;-71
2023/12/18 06:29:05;;;;;;;8.60;2.65;;;8.60;99.90;;;;;;5110381;27;20101;-71
2023/12/18 06:31:31;;;;;;;4.53;1.95;;;8.60;99.90;;;;;;5075053;28;20037;-71
2023/12/18 06:33:56;;;;;;;4.95;2.08;;;8.60;99.90;;;;;;5109300;28;20119;-71
2023/12/18 06:36:22;;;;;;;4.57;2.00;;;8.60;99.90;;;;;;5120866;27;20039;-71
2023/12/18 06:38:48;;;;;;;4.88;2.42;;;8.60;99.90;;;;;;5112327;27;20050;-71
2023/12/18 06:41:14;;;;;;;5.15;2.90;;;8.60;99.90;;;;;;5145585;27;20040;-71
2023/12/18 06:43:40;;;;;;;4.93;2.47;;;8.60;99.90;;;;;;5129093;27;20039;-71
2023/12/18 06:46:06;;;;;;;5.35;2.97;;;8.60;99.90;;;;;;5128726;27;20130;-71
2023/12/18 06:48:32;;;;;;;4.00;2.08;;;8.60;99.90;;;;;;5127156;27;20360;-71
2023/12/18 06:50:58;;;;;;;6.15;2.35;;;8.60;99.90;;;;;;5128576;27;20448;-71
2023/12/18 06:53:24;;;;;;;6.82;2.78;;;8.60;99.90;;;;;;5128346;27;20121;-71
2023/12/18 06:55:50;;;;;;;4.57;1.90;;;8.60;99.90;;;;;;5145645;27;20118;-71
2023/12/18 06:58:15;;;;;;;4.80;2.25;;;8.60;99.90;;;;;;5127140;27;20039;-71
2023/12/18 07:00:43;;;;;;;3.63;2.22;;;8.60;99.90;;;;;;5129277;27;20039;-71
2023/12/18 07:03:09;;;;;;;6.85;1.92;;;8.60;99.90;;;;;;5128951;27;20122;-71
2023/12/18 07:05:35;;;;;;;3.95;2.33;;;8.60;99.90;;;;;;5129173;27;20133;-71
2023/12/18 07:08:01;;;;;;;8.13;2.75;;;8.60;99.90;;;;;;5128864;27;20130;-71
2023/12/18 07:10:27;;;;;;;3.88;2.22;;;8.60;99.90;;;;;;5129038;27;20043;-71
2023/12/18 07:12:52;;;;;;;10.32;3.08;;;8.60;99.90;;;;;;5127485;27;20031;-71
2023/12/18 07:15:18;;;;;;;6.13;2.17;;;8.60;99.90;;;;;;5128974;27;20076;-71
2023/12/18 07:17:44;;;;;;;5.50;2.60;;;8.60;99.90;;;;;;5111851;28;20408;-71
2023/12/18 07:20:12;;;;;;;9.00;2.20;;;8.60;99.90;;;;;;5128979;27;20039;-71
2023/12/18 07:22:39;;;;;;;5.95;2.58;;;8.60;99.90;;;;;;5128202;27;20049;-71
2023/12/18 07:25:07;;;;;;;8.63;3.15;;;8.60;99.90;;;;;;5128981;28;20556;-71
2023/12/18 07:27:33;;;;;;;6.63;2.78;;;8.60;99.90;;;;;;5110574;28;20037;-71
2023/12/18 07:29:58;;;;;;;8.73;2.33;;;8.60;99.90;;;;;;5114539;28;20039;-71
2023/12/18 07:32:24;;;;;;;6.57;2.30;;;8.60;99.90;;;;;;5128863;27;20493;-71
2023/12/18 07:34:50;;;;;;;5.60;3.00;;;8.60;99.90;;;;;;5128870;28;20549;-71
2023/12/18 07:37:15;;;;;;;3.70;1.42;;;8.60;99.90;;;;;;5129673;28;20031;-71
2023/12/18 07:39:41;;;;;;;5.63;2.03;;;8.60;99.90;;;;;;5111566;28;20080;-71
2023/12/18 07:42:08;;;;;;;3.75;1.70;;;8.60;99.90;;;;;;5100065;27;20032;-71
2023/12/18 07:44:33;;;;;;;8.80;2.17;;;8.60;99.90;;;;;;5146009;27;20039;-71
2023/12/18 07:46:59;;;;;;;6.88;1.83;;;8.60;99.90;;;;;;5111456;28;20046;-71
2023/12/18 07:49:25;;;;;;;6.22;1.73;;;8.60;99.90;;;;;;5111673;28;20054;-71
2023/12/18 07:51:50;;;;;;;6.60;2.00;;;8.70;99.90;;;;;;5128315;28;20192;-71
2023/12/18 07:54:16;;;;;;;6.65;2.00;;;8.70;99.90;;;;;;5128478;28;20126;-71
2023/12/18 07:56:41;;;;;;;5.80;2.80;;;8.60;99.90;;;;;;5110208;27;20039;-71
2023/12/18 07:59:07;;;;;;;6.88;2.20;;;8.60;99.90;;;;;;5111490;28;20035;-71
2023/12/18 08:01:34;;;;;;;7.97;3.13;;;8.60;99.90;;;;;;5128203;28;20054;-71
2023/12/18 08:04:00;;;;;;;7.28;2.55;;;8.60;99.90;;;;;;5128746;27;20066;-71
2023/12/18 08:06:25;;;;;;;5.88;2.58;;;8.60;99.90;;;;;;5128636;28;20042;-71
2023/12/18 08:08:51;;;;;;;6.75;2.83;;;8.60;99.90;;;;;;5128400;28;20480;-71
2023/12/18 08:11:17;;;;;;;4.93;2.72;;;8.60;99.90;;;;;;5109936;28;20088;-71
2023/12/18 08:13:43;;;;;;;8.07;2.95;;;8.60;99.90;;;;;;5111112;28;20035;-71
2023/12/18 08:16:10;;;;;;;11.57;4.38;;;8.60;99.90;;;;;;5128776;27;20446;-71
2023/12/18 08:18:36;;;;;;;6.20;2.55;;;8.60;99.90;;;;;;5128586;27;20051;-71
2023/12/18 08:21:03;;;;;;;3.42;2.35;;;8.60;99.90;;;;;;5128435;28;20059;-71
2023/12/18 08:23:28;;;;;;;8.85;2.97;;;8.60;99.90;;;;;;5128011;27;20118;-71
2023/12/18 08:25:54;;;;;;;6.45;3.38;;;8.60;99.90;;;;;;5127581;27;20122;-71
2023/12/18 08:28:20;;;;;;;6.95;3.92;;;8.60;99.90;;;;;;5110326;28;20045;-71
2023/12/18 08:30:45;;;;;;;8.60;3.30;;;8.60;99.90;;;;;;5111219;28;20046;-71
2023/12/18 08:33:12;;;;;;;8.60;2.42;;;8.60;99.90;;;;;;5111762;27;20049;-71
2023/12/18 08:35:37;;;;;;;7.55;3.05;;;8.60;99.90;;;;;;5149158;27;20039;-71
2023/12/18 08:38:03;;;;;;;7.88;3.10;;;8.60;99.90;;;;;;5114667;27;20043;-71
2023/12/18 08:40:29;;;;;;;7.05;3.53;;;8.60;99.90;;;;;;5097374;27;20244;-71
2023/12/18 08:42:55;;;;;;;5.80;2.83;;;8.60;99.90;;;;;;5113431;27;20039;-71
2023/12/18 08:45:20;;;;;;;7.40;2.78;;;8.60;99.90;;;;;;5114849;27;20035;-71
2023/12/18 08:47:46;;;;;;;5.80;3.17;;;8.60;99.90;;;;;;5114619;27;20515;-71
2023/12/18 08:50:12;;;;;;;5.82;2.65;;;8.60;99.90;;;;;;5131743;27;20087;-71
2023/12/18 08:52:37;;;;;;;8.27;3.22;;;8.60;99.90;;;;;;5114510;27;20130;-71
2023/12/18 08:55:03;;;;;;;7.90;3.03;;;8.60;99.90;;;;;;5114266;27;20109;-71
2023/12/18 08:57:29;;;;;;;5.30;2.45;;;8.60;99.90;;;;;;5130455;27;20027;-71
2023/12/18 08:59:55;;;;;;;5.00;2.88;;;8.70;99.90;;;;;;5114289;27;20047;-71
2023/12/18 09:02:21;;;;;;;12.55;3.38;;;8.60;99.90;;;;;;5131627;27;20392;-71
2023/12/18 09:04:47;;;;;;;7.38;3.15;;;8.70;99.90;;;;;;5131560;27;20396;-71
2023/12/18 09:07:13;;;;;;;9.07;3.55;;;8.70;99.90;;;;;;5113962;27;20042;-71
2023/12/18 09:09:39;;;;;;;6.22;3.13;;;8.70;99.90;;;;;;5114097;27;20236;-71
2023/12/18 09:12:08;;;;;;;8.27;3.80;;;8.70;99.90;;;;;;5130591;27;20070;-71
2023/12/18 09:14:35;;;;;;;7.20;2.60;;;8.70;99.90;;;;;;5148374;27;20036;-71
2023/12/18 09:17:01;;;;;;;6.15;2.92;;;8.70;99.90;;;;;;5114175;27;20075;-71
2023/12/18 09:19:27;;;;;;;9.32;2.78;;;8.70;99.90;;;;;;5114115;27;20435;-72
2023/12/18 09:21:52;;;;;;;12.27;3.47;;;8.70;99.90;;;;;;5113550;27;20073;-71
2023/12/18 09:24:18;;;;;;;8.85;3.22;;;8.70;99.90;;;;;;5113468;27;20088;-71
2023/12/18 09:26:44;;;;;;;8.57;3.15;;;8.70;99.90;;;;;;5112940;27;20091;-71
2023/12/18 09:29:09;;;;;;;5.55;2.45;;;8.70;99.90;;;;;;5130954;27;20078;-72
2023/12/18 09:31:35;;;;;;;7.60;3.60;;;8.70;99.90;;;;;;5114123;27;20568;-71
2023/12/18 09:34:01;;;;;;;10.93;3.78;;;8.70;99.90;;;;;;5130670;27;20043;-71
2023/12/18 09:36:27;;;;;;;11.45;2.67;;;8.70;99.90;;;;;;5113247;27;20196;-71
2023/12/18 09:38:52;;;;;;;6.82;2.90;;;8.70;99.90;;;;;;5130395;27;20047;-71
2023/12/18 09:41:24;;;;;;;6.18;2.85;;;8.70;99.90;;;;;;5112689;27;20135;-71
2023/12/18 09:43:52;;;;;;;11.60;3.90;;;8.70;99.90;;;;;;5112919;27;20041;-71
2023/12/18 09:46:20;;;;;;;7.40;2.97;;;8.70;99.90;;;;;;5113373;27;20092;-71
2023/12/18 09:48:46;;;;;;;5.40;3.20;;;8.70;99.90;;;;;;5113669;27;20043;-71
2023/12/18 09:51:17;;;;;;;7.88;3.05;;;8.70;99.90;;;;;;5112861;27;20510;-71
2023/12/18 09:53:43;;;;;;;7.15;2.42;;;8.70;99.90;;;;;;5113498;27;20085;-71
2023/12/18 09:56:10;;;;;;;6.68;3.33;;;8.80;99.90;;;;;;5129467;27;20079;-71
2023/12/18 09:58:38;;;;;;;6.72;3.42;;;8.80;99.90;;;;;;5147659;27;20458;-71
2023/12/18 10:01:04;;;;;;;5.63;2.70;;;8.80;99.90;;;;;;5113111;27;20054;-71
2023/12/18 10:03:30;;;;;;;9.32;3.13;;;8.80;99.90;;;;;;5130284;27;20035;-71
2023/12/18 10:05:55;;;;;;;7.88;3.28;;;8.80;99.90;;;;;;5129679;27;20095;-71
2023/12/18 10:08:21;;;;;;;7.10;3.03;;;8.80;99.90;;;;;;5129982;27;20400;-71
2023/12/18 10:10:47;;;;;;;6.88;2.78;;;8.80;99.90;;;;;;5130017;27;20046;-71
2023/12/18 10:13:13;;;;;;;7.95;3.30;;;8.80;99.90;;;;;;5129000;27;20032;-71
2023/12/18 10:15:41;;;;;;;6.57;2.85;;;8.90;99.90;;;;;;5112951;27;20043;-71
2023/12/18 10:18:09;;;;;;;8.63;3.33;;;8.90;99.90;;;;;;5129963;27;20039;-71
2023/12/18 10:20:35;;;;;;;8.02;4.05;;;8.90;99.90;;;;;;5130181;27;20038;-71
2023/12/18 10:23:02;;;;;;;9.38;2.85;;;8.90;99.90;;;;;;5146772;27;20090;-71
2023/12/18 10:25:29;;;;;;;7.13;3.35;;;8.90;99.90;;;;;;5131081;27;20074;-71
2023/12/18 10:27:55;;;;;;;6.25;2.88;;;8.90;99.90;;;;;;5094806;27;20066;-71
2023/12/18 10:30:25;;;;;;;7.00;3.05;;;9.00;99.90;;;;;;5112923;27;20504;-71
2023/12/18 10:32:54;;;;;;;9.20;4.10;;;8.90;99.90;;;;;;5112042;27;20118;-71
2023/12/18 10:35:22;;;;;;;7.07;2.92;;;8.90;99.90;;;;;;5095139;27;20392;-71
2023/12/18 10:37:52;;;;;;;7.05;3.55;;;9.00;99.90;;;;;;5112124;27;20385;-71
2023/12/18 10:40:19;;;;;;;7.03;3.95;;;9.00;99.90;;;;;;5112653;27;20035;-71
2023/12/18 10:42:58;;;;;;;8.43;3.30;;;8.90;99.90;;;;;;5094206;27;20473;-71
2023/12/18 10:45:26;;;;;;;7.50;3.42;;;9.00;99.90;;;;;;5129300;27;20039;-71
2023/12/18 10:47:54;;;;;;;7.00;3.05;;;8.90;99.90;;;;;;5146666;27;20027;-71
2023/12/18 10:50:21;;;;;;;12.82;4.05;;;9.00;99.90;;;;;;5129428;27;20035;-71
2023/12/18 10:52:48;;;;;;;9.45;3.75;;;9.00;99.90;;;;;;5112077;27;20070;-71
2023/12/18 10:55:16;;;;;;;9.18;3.15;;;9.00;99.90;;;;;;5111677;27;20032;-71
2023/12/18 10:57:43;;;;;;;10.50;4.38;;;9.00;99.90;;;;;;5110433;27;20121;-71
2023/12/18 11:00:13;;;;;;;8.85;3.17;;;9.00;99.90;;;;;;5095263;27;20100;-71
2023/12/18 11:02:41;;;;;;;6.97;3.83;;;9.00;99.90;;;;;;5146855;27;20441;-71
2023/12/18 11:05:08;;;;;;;11.85;3.67;;;9.10;99.90;;;;;;5111998;27;20096;-71
2023/12/18 11:07:34;;;;;;;12.88;4.03;;;9.00;99.90;;;;;;5128855;27;20043;-71
2023/12/18 11:10:00;;;;;;;7.03;3.92;;;9.10;99.90;;;;;;5111947;27;20179;-71
2023/12/18 11:12:26;;;;;;;7.70;3.38;;;9.10;99.90;;;;;;5145275;27;20068;-71
2023/12/18 11:15:11;;;;;;;10.57;3.83;;;9.10;99.90;;;;;;5111796;27;20039;-71
2023/12/18 11:18:04;;;;;;;10.38;4.85;;;9.10;99.90;;;;;;5129224;27;20049;-71
2023/12/18 11:20:39;;;;;;;6.32;3.33;;;9.10;99.90;;;;;;5111826;28;20182;-71
2023/12/18 11:23:05;;;;;;;6.93;2.70;;;9.10;99.90;;;;;;5128841;27;20477;-72
2023/12/18 11:25:35;;;;;;;7.43;3.47;;;9.10;99.90;;;;;;5111659;28;20074;-71
2023/12/18 11:28:02;;;;;;;8.00;4.55;;;9.10;99.90;;;;;;5127652;27;20046;-71
2023/12/18 11:30:29;;;;;;;7.93;3.63;;;9.00;99.90;;;;;;5112208;28;20143;-71
2023/12/18 11:33:06;;;;;;;8.88;3.78;;;9.10;99.90;;;;;;5094522;28;20066;-72
2023/12/18 11:35:34;;;;;;;7.43;3.20;;;9.10;99.90;;;;;;5094299;28;20038;-71
2023/12/18 11:38:05;;;;;;;9.55;3.83;;;9.20;99.90;;;;;;5128374;28;20279;-71
2023/12/18 11:40:31;;;;;;;13.75;3.95;;;9.10;99.90;;;;;;5111613;28;20095;-71
2023/12/18 11:43:00;;;;;;;5.95;2.88;;;9.20;99.90;;;;;;5110629;28;20126;-71
2023/12/18 11:45:26;;;;;;;5.72;3.25;;;9.20;99.90;;;;;;5111659;28;20043;-71
2023/12/18 11:47:59;;;;;;;9.02;3.35;;;9.20;99.90;;;;;;5111780;28;20039;-71
2023/12/18 11:50:26;;;;;;;8.70;3.28;;;9.20;99.90;;;;;;5111628;28;20039;-71
2023/12/18 11:52:56;;;;;;;7.45;3.28;;;9.20;99.90;;;;;;5111038;28;20171;-71
2023/12/18 11:55:40;;;;;;;7.80;3.45;;;9.20;99.90;;;;;;5128391;28;20039;-71
2023/12/18 11:58:07;;;;;;;6.65;3.05;;;9.20;99.90;;;;;;5110513;28;20053;-71
2023/12/18 12:00:34;;;;;;;9.63;3.20;;;9.20;99.90;;;;;;5128173;28;20039;-71
2023/12/18 12:03:00;;;;;;;10.32;3.90;;;9.20;99.90;;;;;;5111194;28;20240;-71
2023/12/18 12:05:27;;;;;;;7.07;3.35;;;9.20;99.90;;;;;;5111226;28;20071;-71
2023/12/18 12:07:53;;;;;;;7.70;3.97;;;9.20;99.90;;;;;;5146981;27;20066;-71
2023/12/18 12:10:20;;;;;;;7.93;3.92;;;9.30;99.90;;;;;;5098294;27;20042;-71
2023/12/18 12:12:53;;;;;;;10.73;3.20;;;9.20;99.90;;;;;;5114120;27;20046;-71
2023/12/18 12:15:19;;;;;;;6.55;3.20;;;9.20;99.90;;;;;;5115506;27;20047;-71
2023/12/18 12:17:44;;;;;;;6.05;3.55;;;9.20;99.90;;;;;;5115068;27;20496;-71
2023/12/18 12:20:14;;;;;;;6.43;4.45;;;9.20;99.90;;;;;;5115064;27;20031;-71
2023/12/18 12:22:39;;;;;;;9.68;3.50;;;9.20;99.90;;;;;;5115082;27;20035;-71
2023/12/18 12:25:05;;;;;;;7.53;3.15;;;9.20;99.90;;;;;;5132426;27;20046;-71
2023/12/18 12:27:31;;;;;;;6.90;3.10;;;9.20;99.90;;;;;;5113877;27;20058;-71
2023/12/18 12:29:57;;;;;;;6.53;3.50;;;9.20;99.90;;;;;;5115256;27;20396;-71
2023/12/18 12:32:24;;;;;;;8.65;3.60;;;9.20;99.90;;;;;;5131792;27;20044;-71
2023/12/18 12:34:50;;;;;;;8.85;3.95;;;9.20;99.90;;;;;;5114924;27;20039;-71
2023/12/18 12:37:16;;;;;;;12.05;4.22;;;9.20;99.90;;;;;;5148575;27;20054;-71
2023/12/18 12:40:02;;;;;;;8.00;3.70;;;9.20;99.90;;;;;;5114700;27;20031;-71
2023/12/18 12:42:29;;;;;;;9.15;3.75;;;9.20;99.90;;;;;;5147941;27;20520;-71
2023/12/18 12:44:55;;;;;;;10.40;4.63;;;9.20;99.90;;;;;;5114744;27;20077;-71
2023/12/18 12:47:21;;;;;;;8.75;3.17;;;9.20;99.90;;;;;;5131560;27;20078;-71
2023/12/18 12:49:48;;;;;;;9.30;4.43;;;9.10;99.90;;;;;;5114629;27;20046;-71
2023/12/18 12:52:17;;;;;;;6.20;3.60;;;9.20;99.90;;;;;;5097162;27;20043;-71